Time;durP1;ratioP1;P1;durP2;ratioP2;P2;SDS_P1;SDS_P2;PMS_P1;PMS_P2;Temp;Humidity;BMP_temperature;BMP_pressure;BME280_temperature;BME280_humidity;BME280_pressure;Samples;Min_cycle;Max_cycle;Signal;HPM_P1;HPM_P2
2022/06/28 00:01:38;;;;;;;;;23.67;23.67;;;;;25.77;51.20;100807.78;110514;1261;18765;-48
2022/06/28 00:04:11;;;;;;;;;28.33;27.00;;;;;25.68;51.47;100809.98;110547;1261;18753;-49
2022/06/28 00:06:39;;;;;;;;;30.33;28.00;;;;;25.71;51.29;100808.13;110486;1262;18305;-50
2022/06/28 00:09:08;;;;;;;;;25.50;24.50;;;;;25.65;51.42;100813.54;110541;1261;18735;-49
2022/06/28 00:11:38;;;;;;;;;27.00;26.67;;;;;25.73;51.13;100816.56;110422;1261;19078;-48
2022/06/28 00:16:04;;;;;;;;;24.00;23.50;;;;;25.73;51.17;100820.30;110436;1261;18327;-48
2022/06/28 00:16:53;;;;;;;;;27.00;23.00;;;;;25.73;51.02;100818.20;110323;1262;18898;-49
2022/06/28 00:19:20;;;;;;;;;24.67;24.00;;;;;25.74;50.76;100820.45;110388;1262;22112;-49
2022/06/28 00:21:47;;;;;;;;;28.00;28.00;;;;;25.75;50.64;100822.90;110458;1261;18446;-55
2022/06/28 00:24:14;;;;;;;;;30.00;26.67;;;;;25.69;50.80;100819.77;110448;1261;18639;-47
2022/06/28 00:26:42;;;;;;;;;28.50;26.50;;;;;25.71;50.54;100819.66;110404;1261;21638;-48
2022/06/28 00:29:09;;;;;;;;;26.00;24.67;;;;;25.71;50.37;100813.58;110611;1262;19450;-48
2022/06/28 00:31:37;;;;;;;;;25.00;24.00;;;;;25.64;50.58;100810.02;110478;1262;18809;-48
2022/06/28 00:34:04;;;;;;;;;29.00;26.00;;;;;25.70;50.52;100806.79;110490;1261;19326;-53
2022/06/28 00:36:32;;;;;;;;;25.33;25.33;;;;;25.69;50.37;100806.32;110526;1261;18308;-48
2022/06/28 00:38:59;;;;;;;;;27.67;26.33;;;;;25.55;50.55;100808.09;110467;1262;19588;-48
2022/06/28 00:41:26;;;;;;;;;24.00;23.33;;;;;25.48;50.72;100803.52;110409;1261;18977;-48
2022/06/28 00:43:54;;;;;;;;;22.00;21.67;;;;;25.38;50.92;100804.33;110478;1262;18301;-49
2022/06/28 00:46:21;;;;;;;;;23.33;23.33;;;;;25.46;50.83;100802.02;110369;1261;18869;-48
2022/06/28 00:48:49;;;;;;;;;26.00;23.00;;;;;25.40;50.98;100805.14;110488;1261;19228;-50
2022/06/28 00:51:16;;;;;;;;;23.00;23.00;;;;;25.48;50.73;100803.55;110449;1261;18388;-50
2022/06/28 00:53:43;;;;;;;;;26.00;23.00;;;;;25.52;50.73;100805.68;110483;1261;19488;-50
2022/06/28 00:56:10;;;;;;;;;22.50;22.00;;;;;25.48;50.98;100798.83;110499;1261;19202;-50
2022/06/28 00:58:38;;;;;;;;;28.67;27.67;;;;;25.47;51.14;100800.94;110451;1261;21629;-50
2022/06/28 01:01:05;;;;;;;;;23.50;23.00;;;;;25.37;51.25;100794.95;110507;1262;18672;-51
2022/06/28 01:03:33;;;;;;;;;24.00;23.00;;;;;25.17;51.70;100796.15;110499;1262;18724;-49
2022/06/28 01:06:00;;;;;;;;;26.67;25.00;;;;;25.15;51.88;100794.58;110434;1261;18363;-47
2022/06/28 01:08:27;;;;;;;;;27.33;25.33;;;;;25.27;51.65;100795.30;110463;1262;19630;-48
2022/06/28 01:10:54;;;;;;;;;22.33;22.33;;;;;25.32;51.46;100795.31;110400;1261;18834;-48
2022/06/28 01:13:22;;;;;;;;;25.33;23.00;;;;;25.24;51.52;100795.80;110401;1261;19803;-49
2022/06/28 01:15:49;;;;;;;;;26.00;25.00;;;;;25.28;51.51;100794.45;110504;1261;20323;-49
2022/06/28 01:18:16;;;;;;;;;23.33;23.33;;;;;25.24;51.71;100792.95;110473;1261;18873;-49
2022/06/28 01:20:43;;;;;;;;;26.00;25.67;;;;;25.24;51.63;100797.98;110469;1261;18165;-52
2022/06/28 01:23:10;;;;;;;;;25.50;24.50;;;;;25.27;51.54;100802.48;110483;1261;20114;-51
2022/06/28 01:25:38;;;;;;;;;29.33;26.00;;;;;25.18;51.70;100804.97;110445;1261;18880;-47
2022/06/28 01:28:05;;;;;;;;;27.67;26.00;;;;;25.19;51.65;100807.67;110500;1261;18411;-52
2022/06/28 01:30:32;;;;;;;;;29.00;27.33;;;;;25.32;51.35;100810.42;110059;1261;594071;-49
2022/06/28 01:33:00;;;;;;;;;29.50;26.00;;;;;25.17;51.58;100808.92;110487;1262;19392;-50
2022/06/28 01:35:27;;;;;;;;;27.67;25.67;;;;;25.14;51.72;100809.34;110486;1261;19706;-49
2022/06/28 01:37:54;;;;;;;;;23.00;22.33;;;;;25.20;51.42;100812.40;110415;1261;19358;-53
2022/06/28 01:40:21;;;;;;;;;23.67;22.33;;;;;25.18;51.50;100815.10;110475;1261;18667;-53
2022/06/28 01:42:49;;;;;;;;;25.33;23.33;;;;;25.17;51.45;100814.34;110520;1261;18348;-54
2022/06/28 01:45:16;;;;;;;;;26.33;24.00;;;;;25.18;51.48;100812.15;110449;1261;18921;-50
2022/06/28 01:47:44;;;;;;;;;26.00;24.50;;;;;25.15;51.67;100812.69;110491;1261;18621;-48
2022/06/28 01:50:12;;;;;;;;;21.33;20.00;;;;;25.08;51.87;100809.05;110455;1262;18413;-53
2022/06/28 01:52:39;;;;;;;;;25.50;24.50;;;;;25.13;51.69;100809.38;110510;1261;19716;-49
2022/06/28 01:55:06;;;;;;;;;23.00;22.00;;;;;25.17;51.52;100807.20;110468;1261;18671;-51
2022/06/28 01:57:34;;;;;;;;;26.00;25.00;;;;;25.13;51.74;100805.45;110289;1261;23250;-50
2022/06/28 02:00:01;;;;;;;;;26.00;25.50;;;;;25.02;51.90;100813.73;110425;1261;21000;-53
2022/06/28 02:02:28;;;;;;;;;22.33;20.00;;;;;24.91;52.13;100812.06;110417;1261;21892;-49
2022/06/28 02:04:55;;;;;;;;;27.67;24.67;;;;;24.86;52.33;100810.35;110496;1261;18485;-49
2022/06/28 02:07:23;;;;;;;;;23.33;21.33;;;;;24.94;52.19;100807.98;110463;1262;18941;-48
2022/06/28 02:09:50;;;;;;;;;23.50;22.00;;;;;24.92;52.17;100806.91;110514;1261;21552;-48
2022/06/28 02:12:17;;;;;;;;;21.00;21.00;;;;;24.91;52.25;100801.30;110495;1262;18744;-48
2022/06/28 02:14:44;;;;;;;;;24.33;22.00;;;;;24.89;52.40;100803.16;110453;1261;18655;-48
2022/06/28 02:17:12;;;;;;;;;26.50;24.00;;;;;24.84;52.47;100802.45;110487;1261;18846;-48
2022/06/28 02:19:40;;;;;;;;;23.33;22.33;;;;;24.83;52.40;100802.84;110461;1262;18170;-48
2022/06/28 02:22:08;;;;;;;;;25.33;21.33;;;;;24.79;52.66;100807.91;110430;1261;19042;-51
2022/06/28 02:24:35;;;;;;;;;24.67;21.33;;;;;24.79;52.63;100811.20;110455;1262;18790;-48
2022/06/28 02:27:03;;;;;;;;;22.33;21.67;;;;;24.72;52.94;100804.41;110402;1261;18301;-49
2022/06/28 02:29:30;;;;;;;;;24.00;23.67;;;;;24.73;52.99;100798.30;110398;1262;18955;-48
2022/06/28 02:31:57;;;;;;;;;25.33;24.00;;;;;24.68;53.22;100798.27;110487;1261;18731;-48
2022/06/28 02:42:39;;;;;;;;;22.33;21.33;;;;;24.66;53.26;100802.30;110488;1261;18298;-49
2022/06/28 02:45:07;;;;;;;;;24.00;22.00;;;;;24.80;53.08;100804.66;110458;1262;19447;-48
2022/06/28 02:47:34;;;;;;;;;24.67;23.67;;;;;24.84;52.80;100806.93;110386;1262;18770;-48
2022/06/28 02:50:01;;;;;;;;;25.33;24.00;;;;;24.82;52.82;100807.97;110468;1262;20645;-49
2022/06/28 02:52:28;;;;;;;;;27.33;23.33;;;;;24.72;53.30;100801.41;110463;1261;21895;-48
2022/06/28 02:54:56;;;;;;;;;26.00;24.00;;;;;24.72;53.41;100803.27;110514;1261;19641;-48
2022/06/28 02:57:23;;;;;;;;;23.33;22.33;;;;;24.76;53.23;100808.14;110451;1261;18229;-48
2022/06/28 02:59:50;;;;;;;;;26.00;24.00;;;;;24.72;53.28;100804.07;110481;1262;18987;-48
2022/06/28 03:02:17;;;;;;;;;22.00;21.50;;;;;24.72;53.32;100804.45;110453;1261;18659;-48
2022/06/28 03:04:45;;;;;;;;;24.67;24.00;;;;;24.78;53.29;100809.80;110489;1261;18192;-48
2022/06/28 03:07:12;;;;;;;;;25.00;23.33;;;;;24.59;53.78;100806.94;110493;1261;18674;-49
2022/06/28 03:09:39;;;;;;;;;24.00;23.00;;;;;24.59;54.11;100803.35;110491;1262;19015;-48
2022/06/28 03:12:06;;;;;;;;;25.00;22.67;;;;;24.70;53.82;100799.25;110460;1261;18332;-49
2022/06/28 03:14:33;;;;;;;;;30.00;29.00;;;;;24.66;53.94;100800.91;110460;1262;18669;-48
2022/06/28 03:17:01;;;;;;;;;24.67;23.00;;;;;24.69;53.83;100805.27;110456;1261;19571;-48
2022/06/28 03:19:28;;;;;;;;;24.00;22.33;;;;;24.55;54.05;100802.23;110446;1261;18517;-51
2022/06/28 03:21:55;;;;;;;;;28.00;25.00;;;;;24.53;54.30;100806.64;110503;1261;19473;-54
2022/06/28 03:24:22;;;;;;;;;24.00;24.00;;;;;24.58;54.27;100802.38;110458;1262;18757;-48
2022/06/28 03:26:50;;;;;;;;;29.00;26.67;;;;;24.62;54.37;100811.34;110459;1261;18352;-49
2022/06/28 03:29:17;;;;;;;;;25.00;24.50;;;;;24.58;54.61;100806.48;110444;1261;21022;-49
2022/06/28 03:31:44;;;;;;;;;26.33;25.00;;;;;24.53;54.84;100804.33;110459;1261;20115;-50
2022/06/28 03:34:12;;;;;;;;;28.00;28.00;;;;;24.41;55.22;100801.58;110486;1261;18322;-50
2022/06/28 03:36:39;;;;;;;;;31.00;30.00;;;;;24.35;55.80;100806.84;110508;1261;18834;-49
2022/06/28 03:39:06;;;;;;;;;30.00;29.00;;;;;24.56;55.26;100809.90;110460;1261;18671;-50
2022/06/28 03:41:34;;;;;;;;;26.67;24.67;;;;;24.52;55.41;100806.56;110433;1262;21635;-54
2022/06/28 03:44:01;;;;;;;;;27.33;26.33;;;;;24.47;55.59;100801.55;110420;1261;18688;-48
2022/06/28 03:46:28;;;;;;;;;25.00;24.33;;;;;24.55;55.46;100805.35;110441;1261;20667;-48
2022/06/28 03:48:55;;;;;;;;;28.00;25.50;;;;;24.54;55.50;100808.30;110478;1261;19154;-48
2022/06/28 03:51:23;;;;;;;;;25.00;24.00;;;;;24.56;55.52;100810.63;110453;1261;23006;-48
2022/06/28 03:53:50;;;;;;;;;25.33;25.33;;;;;24.48;55.71;100809.45;110471;1261;19167;-48
2022/06/28 03:56:17;;;;;;;;;26.67;25.00;;;;;24.51;55.80;100803.21;110515;1262;18298;-48
2022/06/28 03:58:44;;;;;;;;;30.67;26.67;;;;;24.53;55.93;100801.16;110466;1261;18824;-48
2022/06/28 04:01:11;;;;;;;;;30.00;28.33;;;;;24.51;55.98;100795.38;110499;1261;18702;-53
2022/06/28 04:03:39;;;;;;;;;28.67;28.00;;;;;24.54;56.15;100795.16;110509;1261;18199;-48
2022/06/28 04:06:06;;;;;;;;;25.00;24.00;;;;;24.54;56.13;100794.14;110474;1262;19945;-48
2022/06/28 04:08:33;;;;;;;;;28.33;27.33;;;;;24.66;55.72;100792.36;110501;1261;18757;-49
2022/06/28 04:11:16;;;;;;;;;27.67;25.33;;;;;24.55;56.04;100790.30;110455;1262;18438;-48
2022/06/28 04:13:43;;;;;;;;;25.00;23.33;;;;;24.61;56.11;100791.93;110468;1262;19150;-49
2022/06/28 04:16:10;;;;;;;;;28.33;26.33;;;;;24.65;55.98;100796.47;110489;1262;18714;-50
2022/06/28 04:18:38;;;;;;;;;24.33;24.00;;;;;24.74;55.86;100797.46;110443;1261;19531;-50
2022/06/28 04:21:05;;;;;;;;;29.33;27.33;;;;;24.90;55.49;100801.34;110478;1262;22007;-49
2022/06/28 04:23:32;;;;;;;;;28.00;26.00;;;;;24.89;55.57;100800.80;110447;1261;18859;-49
2022/06/28 04:25:59;;;;;;;;;26.00;25.67;;;;;24.96;55.48;100806.10;110470;1261;18257;-50
2022/06/28 04:28:27;;;;;;;;;26.00;25.50;;;;;24.89;55.67;100811.46;110467;1262;18856;-46
2022/06/28 04:30:54;;;;;;;;;26.67;26.67;;;;;24.99;55.50;100811.00;110477;1261;18938;-50
2022/06/28 04:33:21;;;;;;;;;37.00;31.00;;;;;24.97;55.48;100803.12;110375;1261;18494;-50
2022/06/28 04:35:49;;;;;;;;;26.33;26.00;;;;;24.95;55.49;100802.94;110454;1262;20666;-47
2022/06/28 04:38:16;;;;;;;;;29.33;26.67;;;;;25.01;55.24;100797.87;110454;1261;19735;-50
2022/06/28 04:40:43;;;;;;;;;26.50;26.00;;;;;25.08;55.18;100796.30;110461;1261;20039;-50
2022/06/28 04:43:11;;;;;;;;;25.00;25.00;;;;;25.10;55.11;100794.76;110527;1261;18871;-49
2022/06/28 04:45:38;;;;;;;;;25.00;24.67;;;;;25.02;55.43;100800.16;110449;1261;18705;-51
2022/06/28 04:48:05;;;;;;;;;24.33;24.33;;;;;25.04;55.16;100795.27;110446;1261;18192;-50
2022/06/28 04:50:33;;;;;;;;;22.00;22.00;;;;;25.06;55.20;100796.52;110441;1261;19228;-49
2022/06/28 04:53:00;;;;;;;;;25.67;23.00;;;;;25.15;54.84;100804.66;110452;1261;22007;-50
2022/06/28 04:55:28;;;;;;;;;26.00;22.67;;;;;25.18;54.72;100809.06;110450;1262;18192;-51
2022/06/28 04:57:56;;;;;;;;;25.50;25.00;;;;;25.18;54.81;100816.11;110457;1261;19315;-49
2022/06/28 05:00:23;;;;;;;;;27.50;27.50;;;;;25.20;54.76;100818.20;110384;1261;18721;-51
2022/06/28 05:02:51;;;;;;;;;28.00;26.00;;;;;25.34;54.42;100820.10;110437;1261;18339;-46
2022/06/28 05:05:18;;;;;;;;;27.00;25.67;;;;;25.38;54.33;100812.42;110431;1261;18681;-49
2022/06/28 05:07:45;;;;;;;;;31.00;28.33;;;;;25.39;54.48;100812.56;110417;1262;22755;-51
2022/06/28 05:10:12;;;;;;;;;33.00;30.50;;;;;25.39;54.73;100814.08;110479;1261;18732;-51
2022/06/28 05:12:39;;;;;;;;;27.33;26.33;;;;;25.41;54.94;100811.44;110453;1261;18732;-49
2022/06/28 05:15:07;;;;;;;;;30.00;28.00;;;;;25.46;55.06;100807.94;110398;1262;18718;-51
2022/06/28 05:17:34;;;;;;;;;27.67;26.33;;;;;25.50;54.76;100814.37;110436;1262;18511;-51
2022/06/28 05:20:02;;;;;;;;;35.00;27.33;;;;;25.54;54.93;100813.07;110424;1261;18540;-50
2022/06/28 05:22:29;;;;;;;;;31.00;29.67;;;;;25.50;54.97;100814.65;110447;1262;19578;-52
2022/06/28 05:24:56;;;;;;;;;28.50;26.50;;;;;25.62;54.87;100814.27;110488;1262;18217;-51
2022/06/28 05:27:24;;;;;;;;;27.00;26.00;;;;;25.69;54.65;100827.64;110438;1261;18933;-50
2022/06/28 05:29:51;;;;;;;;;27.00;26.00;;;;;25.62;54.67;100833.83;110465;1262;22176;-51
2022/06/28 05:32:19;;;;;;;;;29.00;27.00;;;;;25.49;55.22;100832.13;110479;1262;18358;-51
2022/06/28 05:34:46;;;;;;;;;27.33;26.67;;;;;25.59;55.34;100830.23;110457;1261;18780;-52
2022/06/28 05:37:13;;;;;;;;;34.00;29.33;;;;;25.74;55.12;100830.33;110462;1261;20980;-49
2022/06/28 05:39:41;;;;;;;;;33.67;27.67;;;;;25.82;54.93;100834.75;110470;1261;18862;-52
2022/06/28 05:42:08;;;;;;;;;27.00;26.67;;;;;25.85;54.94;100838.89;110460;1262;18998;-51
2022/06/28 05:44:35;;;;;;;;;29.00;26.67;;;;;25.97;54.58;100843.27;110458;1262;22200;-51
2022/06/28 05:47:02;;;;;;;;;28.67;27.33;;;;;25.94;54.35;100847.36;110462;1262;18499;-50
2022/06/28 05:49:30;;;;;;;;;26.00;23.67;;;;;25.88;53.86;100845.91;110489;1261;21654;-51
2022/06/28 05:51:57;;;;;;;;;24.33;22.33;;;;;25.97;53.77;100848.02;110471;1261;19276;-51
2022/06/28 05:54:24;;;;;;;;;26.00;25.00;;;;;26.13;53.45;100850.77;110494;1262;18304;-50
2022/06/28 05:56:51;;;;;;;;;27.67;25.00;;;;;26.00;53.52;100847.54;110458;1261;22952;-49
2022/06/28 05:59:19;;;;;;;;;27.00;25.67;;;;;25.92;53.60;100848.83;110469;1261;20911;-51
2022/06/28 06:01:46;;;;;;;;;25.50;23.00;;;;;26.07;53.24;100859.58;110485;1262;18257;-51
2022/06/28 06:04:13;;;;;;;;;29.00;28.00;;;;;26.00;53.34;100853.91;110486;1262;19360;-51
2022/06/28 06:06:40;;;;;;;;;29.00;26.50;;;;;25.94;53.67;100848.17;110431;1261;18753;-50
2022/06/28 06:09:08;;;;;;;;;30.50;27.00;;;;;26.08;53.42;100862.72;110462;1262;18220;-50
2022/06/28 06:11:35;;;;;;;;;28.67;28.67;;;;;26.23;53.61;100866.70;110448;1262;18676;-49
2022/06/28 06:14:02;;;;;;;;;27.50;27.00;;;;;26.41;53.59;100863.05;110426;1261;19384;-50
2022/06/28 06:16:30;;;;;;;;;26.33;24.00;;;;;26.47;53.29;100852.70;110456;1261;21069;-49
2022/06/28 06:18:57;;;;;;;;;33.00;31.00;;;;;26.62;53.05;100861.78;110444;1261;18964;-48
2022/06/28 06:21:24;;;;;;;;;30.33;28.00;;;;;26.77;52.76;100861.90;110414;1262;18893;-48
2022/06/28 06:23:51;;;;;;;;;33.00;30.33;;;;;26.88;52.66;100861.58;110424;1262;23378;-48
2022/06/28 06:26:19;;;;;;;;;30.50;29.00;;;;;26.97;52.60;100864.61;110339;1261;18689;-48
2022/06/28 06:28:46;;;;;;;;;29.00;28.50;;;;;27.03;52.58;100867.05;110284;1262;19166;-51
2022/06/28 06:31:13;;;;;;;;;29.00;27.33;;;;;27.03;52.62;100873.02;110461;1261;18205;-47
2022/06/28 06:33:40;;;;;;;;;30.00;27.00;;;;;27.06;52.58;100878.99;110359;1261;18758;-52
2022/06/28 06:36:08;;;;;;;;;29.50;27.00;;;;;27.11;52.49;100875.95;110447;1261;19599;-49
2022/06/28 06:38:35;;;;;;;;;29.33;29.33;;;;;27.15;52.23;100869.58;110450;1261;18295;-51
2022/06/28 06:41:02;;;;;;;;;31.33;28.67;;;;;27.21;52.35;100875.32;110456;1262;19010;-52
2022/06/28 06:43:29;;;;;;;;;33.00;33.00;;;;;27.33;52.30;100885.27;110426;1261;18933;-52
2022/06/28 06:45:57;;;;;;;;;38.50;32.50;;;;;27.43;52.36;100893.54;110470;1261;18173;-51
2022/06/28 06:48:24;;;;;;;;;35.67;31.33;;;;;27.47;52.25;100908.05;110396;1261;18960;-49
2022/06/28 06:50:51;;;;;;;;;34.50;30.00;;;;;27.49;52.22;100916.41;110452;1261;19778;-53
2022/06/28 06:53:20;;;;;;;;;29.00;27.00;;;;;27.42;52.18;100917.04;110425;1261;19138;-46
2022/06/28 06:55:48;;;;;;;;;33.67;32.33;;;;;27.40;52.29;100918.07;110430;1261;18675;-47
2022/06/28 06:58:15;;;;;;;;;36.67;34.33;;;;;27.44;52.60;100918.48;110450;1262;21099;-47
2022/06/28 07:00:42;;;;;;;;;35.67;34.00;;;;;27.49;52.63;100919.64;110459;1261;21245;-49
2022/06/28 07:03:09;;;;;;;;;36.00;33.00;;;;;27.53;52.81;100915.13;110434;1262;19018;-53
2022/06/28 07:05:37;;;;;;;;;37.00;34.67;;;;;27.54;52.71;100914.83;110418;1261;18933;-49
2022/06/28 07:08:04;;;;;;;;;33.33;32.67;;;;;27.51;52.77;100917.13;110450;1262;18249;-51
2022/06/28 07:10:32;;;;;;;;;39.67;36.00;;;;;27.48;52.92;100922.70;110456;1262;18774;-49
2022/06/28 07:13:01;;;;;;;;;31.33;30.00;;;;;27.47;53.09;100928.29;110432;1261;19008;-49
2022/06/28 07:15:28;;;;;;;;;41.33;37.33;;;;;27.47;53.09;100933.20;110404;1261;18307;-52
2022/06/28 07:17:55;;;;;;;;;36.00;35.33;;;;;27.49;53.10;100935.99;110429;1262;18681;-50
2022/06/28 07:20:22;;;;;;;;;37.00;34.33;;;;;27.46;53.30;100936.55;110372;1262;18930;-48
2022/06/28 07:22:50;;;;;;;;;37.67;36.00;;;;;27.44;53.43;100945.45;110411;1262;19405;-48
2022/06/28 07:25:17;;;;;;;;;36.33;33.67;;;;;27.41;53.51;100950.80;110437;1262;18700;-49
2022/06/28 07:27:45;;;;;;;;;35.33;33.33;;;;;27.37;53.58;100948.89;110183;1262;18849;-51
2022/06/28 07:30:12;;;;;;;;;43.67;38.00;;;;;27.36;53.92;100942.39;110383;1262;18295;-53
2022/06/28 07:32:39;;;;;;;;;39.00;36.00;;;;;27.20;54.57;100941.86;110392;1261;18974;-51
2022/06/28 07:35:07;;;;;;;;;45.00;39.00;;;;;27.09;55.26;100938.84;110395;1261;18679;-48
2022/06/28 07:37:36;;;;;;;;;46.67;39.67;;;;;27.08;55.59;100940.84;110417;1262;18304;-49
2022/06/28 07:40:03;;;;;;;;;51.00;42.00;;;;;27.04;55.95;100948.14;110446;1261;18951;-49
2022/06/28 07:42:31;;;;;;;;;50.67;42.00;;;;;26.95;56.16;100943.27;110440;1261;19605;-56
2022/06/28 07:44:58;;;;;;;;;48.67;42.00;;;;;26.95;56.28;100940.52;110469;1261;18341;-48
2022/06/28 07:47:25;;;;;;;;;47.67;41.67;;;;;27.04;56.09;100940.81;110442;1261;19742;-50
2022/06/28 07:52:37;;;;;;;;;47.33;40.00;;;;;27.06;56.17;100930.27;110431;1262;18192;-53
2022/06/28 07:55:05;;;;;;;;;48.67;42.67;;;;;27.07;56.10;100923.58;110424;1261;22018;-50
2022/06/28 07:57:32;;;;;;;;;48.00;42.00;;;;;27.05;56.02;100922.74;110376;1262;18803;-51
2022/06/28 07:59:59;;;;;;;;;49.33;39.00;;;;;27.03;56.10;100925.20;110411;1261;20183;-47
2022/06/28 08:02:28;;;;;;;;;53.33;43.00;;;;;27.05;56.17;100931.89;110295;1262;26006;-50
2022/06/28 08:04:55;;;;;;;;;44.33;39.00;;;;;27.03;56.50;100932.08;110292;1261;19145;-51
2022/06/28 08:07:22;;;;;;;;;46.00;39.50;;;;;27.05;56.57;100937.83;110433;1262;18640;-56
2022/06/28 08:09:50;;;;;;;;;49.33;41.67;;;;;27.08;56.65;100932.33;110459;1262;18824;-55
2022/06/28 08:12:17;;;;;;;;;41.67;38.00;;;;;27.06;56.66;100920.73;110437;1261;19822;-49
2022/06/28 08:14:44;;;;;;;;;43.33;39.00;;;;;27.07;56.69;100923.35;110232;1261;18208;-50
2022/06/28 08:17:12;;;;;;;;;43.00;38.50;;;;;27.02;56.44;100927.14;110389;1261;22570;-51
2022/06/28 08:19:39;;;;;;;;;40.67;37.00;;;;;27.01;56.69;100924.09;110447;1262;18816;-50
2022/06/28 08:22:06;;;;;;;;;43.50;39.00;;;;;27.03;56.83;100917.45;110490;1262;18192;-51
2022/06/28 08:24:33;;;;;;;;;38.00;36.00;;;;;27.02;56.67;100919.05;110405;1262;19200;-52
2022/06/28 08:27:01;;;;;;;;;40.00;36.00;;;;;27.05;56.98;100911.79;110412;1261;18732;-50
2022/06/28 08:29:30;;;;;;;;;39.33;36.33;;;;;27.08;57.00;100910.48;110360;1262;18407;-50
2022/06/28 08:31:57;;;;;;;;;38.50;37.00;;;;;27.11;56.99;100910.86;110475;1261;18791;-51
2022/06/28 08:34:25;;;;;;;;;36.67;35.67;;;;;27.13;57.07;100900.49;110483;1261;18701;-51
2022/06/28 08:36:52;;;;;;;;;39.33;36.00;;;;;27.15;56.95;100900.90;110480;1262;20271;-51
2022/06/28 08:39:19;;;;;;;;;40.33;35.67;;;;;27.15;56.65;100896.33;110431;1261;18828;-53
2022/06/28 08:41:46;;;;;;;;;44.33;39.00;;;;;27.11;56.60;100895.92;110380;1261;18854;-53
2022/06/28 08:44:14;;;;;;;;;42.00;38.00;;;;;27.15;56.83;100888.42;110431;1262;18671;-50
2022/06/28 08:46:42;;;;;;;;;41.33;38.00;;;;;27.22;56.79;100882.80;110455;1261;18937;-50
2022/06/28 08:49:09;;;;;;;;;40.33;37.67;;;;;27.28;56.55;100883.18;110495;1262;18771;-53
2022/06/28 08:51:36;;;;;;;;;47.00;39.00;;;;;27.28;56.43;100889.20;110415;1262;31596;-53
2022/06/28 08:54:04;;;;;;;;;42.67;36.67;;;;;27.27;56.26;100892.44;110443;1261;18738;-51
2022/06/28 08:56:31;;;;;;;;;47.00;38.67;;;;;27.30;56.09;100897.86;110445;1261;18638;-50
2022/06/28 08:58:59;;;;;;;;;38.50;36.00;;;;;27.41;55.97;100910.86;110393;1261;18206;-47
2022/06/28 09:01:26;;;;;;;;;39.67;36.33;;;;;27.58;55.71;100932.45;110421;1262;20395;-50
2022/06/28 09:03:53;;;;;;;;;38.33;35.33;;;;;27.67;55.64;100956.17;110513;1262;19482;-49
2022/06/28 09:06:20;;;;;;;;;40.50;38.00;;;;;27.61;55.70;100969.16;110413;1261;19232;-51
2022/06/28 09:08:48;;;;;;;;;40.33;37.67;;;;;27.51;55.82;100979.65;110435;1262;19036;-51
2022/06/28 09:11:15;;;;;;;;;41.33;37.67;;;;;27.43;55.83;100999.66;110419;1262;18762;-52
2022/06/28 09:13:43;;;;;;;;;46.33;40.00;;;;;27.37;55.97;101014.41;110435;1261;22090;-52
2022/06/28 09:16:11;;;;;;;;;38.00;37.00;;;;;27.32;56.09;101020.30;110434;1262;19017;-52
2022/06/28 09:18:38;;;;;;;;;42.67;38.33;;;;;27.26;56.13;101019.34;110409;1262;18696;-51
2022/06/28 09:21:05;;;;;;;;;44.00;39.33;;;;;27.11;56.44;101012.95;110447;1262;18501;-51
2022/06/28 09:23:33;;;;;;;;;43.67;39.00;;;;;27.03;56.85;101017.20;110420;1261;19279;-51
2022/06/28 09:26:00;;;;;;;;;45.33;39.00;;;;;27.00;57.33;101023.27;110442;1261;21936;-50
2022/06/28 09:28:28;;;;;;;;;41.50;38.00;;;;;26.91;58.31;101029.91;110451;1261;18248;-52
2022/06/28 09:30:55;;;;;;;;;42.00;37.33;;;;;26.91;59.48;101035.38;110497;1262;18727;-49
2022/06/28 09:33:22;;;;;;;;;43.67;38.33;;;;;26.89;60.70;101050.09;110409;1262;22117;-51
2022/06/28 09:35:50;;;;;;;;;41.00;36.00;;;;;27.01;61.13;101061.17;110459;1262;18214;-53
2022/06/28 09:38:17;;;;;;;;;39.00;37.50;;;;;26.85;61.15;101055.92;110440;1261;18815;-52
2022/06/28 09:40:44;;;;;;;;;41.00;38.00;;;;;26.64;62.42;101052.59;110456;1261;21950;-50
2022/06/28 09:43:12;;;;;;;;;38.33;37.00;;;;;26.53;63.23;101059.42;110473;1261;18932;-52
2022/06/28 09:45:39;;;;;;;;;41.00;37.50;;;;;26.53;63.28;101058.58;110436;1262;18965;-51
2022/06/28 09:48:06;;;;;;;;;34.00;34.00;;;;;26.52;62.84;101059.08;110465;1262;18718;-50
2022/06/28 09:50:33;;;;;;;;;36.33;35.67;;;;;26.43;62.89;101060.29;110445;1262;18205;-53
2022/06/28 09:53:01;;;;;;;;;38.00;36.00;;;;;26.44;62.66;101060.83;110397;1260;22363;-52
2022/06/28 09:55:28;;;;;;;;;38.67;36.00;;;;;26.50;62.88;101068.71;110372;1262;21647;-49
2022/06/28 09:57:55;;;;;;;;;44.33;38.00;;;;;26.39;63.50;101074.52;110470;1262;18411;-52
2022/06/28 10:00:24;;;;;;;;;41.00;38.00;;;;;26.21;64.53;101074.58;110436;1261;20992;-52
2022/06/28 10:02:52;;;;;;;;;45.50;38.50;;;;;25.92;65.80;101078.08;110464;1262;21969;-51
2022/06/28 10:05:19;;;;;;;;;45.33;38.00;;;;;25.68;66.77;101078.61;110262;1262;18377;-55
2022/06/28 10:07:46;;;;;;;;;49.67;40.33;;;;;25.59;67.54;101066.16;110275;1261;18686;-54
2022/06/28 10:10:13;;;;;;;;;43.00;36.50;;;;;25.66;67.64;101062.80;110383;1262;22054;-52
2022/06/28 10:15:25;;;;;;;;;54.00;43.33;;;;;25.69;68.42;101072.23;110344;1261;18531;-50
2022/06/28 10:17:53;;;;;;;;;46.67;41.00;;;;;26.12;66.87;101079.24;110300;1262;18778;-55
2022/06/28 10:20:20;;;;;;;;;50.33;42.67;;;;;25.95;67.00;101079.40;110333;1261;18331;-53
2022/06/28 10:22:47;;;;;;;;;48.67;41.00;;;;;25.64;68.18;101077.17;110248;1261;19288;-51
2022/06/28 10:25:15;;;;;;;;;52.00;43.00;;;;;25.51;69.03;101076.27;110277;1261;21963;-50
2022/06/28 10:27:42;;;;;;;;;50.67;43.00;;;;;25.45;69.75;101079.79;110375;1262;18296;-53
2022/06/28 10:30:10;;;;;;;;;54.00;44.00;;;;;25.25;70.81;101082.28;110370;1262;18701;-53
2022/06/28 10:32:37;;;;;;;;;48.00;43.00;;;;;25.21;71.68;101074.02;110423;1262;18932;-50
2022/06/28 10:35:04;;;;;;;;;53.33;44.33;;;;;25.26;72.27;101090.83;110315;1262;18346;-49
2022/06/28 10:37:32;;;;;;;;;49.50;43.00;;;;;25.32;72.40;101095.60;110357;1262;23309;-53
2022/06/28 10:39:59;;;;;;;;;54.67;44.00;;;;;25.22;72.85;101093.92;110448;1262;18639;-51
2022/06/28 10:42:27;;;;;;;;;50.00;43.00;;;;;25.20;73.16;101092.13;110432;1262;26654;-52
2022/06/28 10:44:54;;;;;;;;;49.67;42.67;;;;;25.23;73.07;101087.79;110427;1261;20652;-51
2022/06/28 10:47:21;;;;;;;;;46.67;42.33;;;;;25.25;73.09;101090.43;110390;1262;22186;-52
2022/06/28 10:49:48;;;;;;;;;50.00;42.67;;;;;25.40;73.24;101104.11;110395;1262;18224;-52
2022/06/28 10:52:16;;;;;;;;;54.33;44.00;;;;;25.56;73.22;101107.86;110489;1261;19045;-51
2022/06/28 10:54:43;;;;;;;;;55.33;44.67;;;;;25.85;72.65;101102.64;110467;1261;19178;-51
2022/06/28 10:57:10;;;;;;;;;56.00;46.00;;;;;26.05;72.63;101103.55;110423;1262;19958;-51
2022/06/28 10:59:38;;;;;;;;;51.00;43.00;;;;;25.99;73.16;101102.42;110434;1261;19810;-52
2022/06/28 11:02:05;;;;;;;;;57.00;45.00;;;;;26.03;73.28;101104.81;110322;1262;18748;-51
2022/06/28 11:04:32;;;;;;;;;56.67;45.00;;;;;26.06;73.45;101105.89;110398;1261;18440;-51
2022/06/28 11:07:00;;;;;;;;;57.00;44.50;;;;;26.12;73.18;101110.59;110529;1262;18810;-50
2022/06/28 11:09:27;;;;;;;;;55.00;45.00;;;;;26.17;73.22;101117.27;110421;1261;18819;-53
2022/06/28 11:11:55;;;;;;;;;57.00;45.00;;;;;26.20;72.97;101114.83;110449;1260;18285;-51
2022/06/28 11:14:22;;;;;;;;;52.50;43.00;;;;;26.16;73.09;101116.45;110430;1262;21799;-53
2022/06/28 11:16:49;;;;;;;;;50.00;43.50;;;;;26.26;72.87;101115.23;110418;1261;18782;-51